sensor_id;sensor_type;location;lat;lon;timestamp;P1;durP1;ratioP1;P2;durP2;ratioP2
78209;SDS011;67485;48.816;9.930;2023-08-12T00:01:39;3.87;;;2.40;;
78209;SDS011;67485;48.816;9.930;2023-08-12T00:04:05;4.93;;;2.50;;
78209;SDS011;67485;48.816;9.930;2023-08-12T00:06:31;6.90;;;2.88;;
78209;SDS011;67485;48.816;9.930;2023-08-12T00:08:57;4.43;;;2.80;;
78209;SDS011;67485;48.816;9.930;2023-08-12T00:11:22;6.38;;;3.33;;
78209;SDS011;67485;48.816;9.930;2023-08-12T00:13:48;6.73;;;2.60;;
78209;SDS011;67485;48.816;9.930;2023-08-12T00:16:14;4.28;;;2.80;;
78209;SDS011;67485;48.816;9.930;2023-08-12T00:18:39;3.57;;;2.60;;
78209;SDS011;67485;48.816;9.930;2023-08-12T00:21:06;3.80;;;2.57;;
78209;SDS011;67485;48.816;9.930;2023-08-12T00:23:36;3.85;;;2.65;;
78209;SDS011;67485;48.816;9.930;2023-08-12T00:26:03;4.20;;;2.70;;
78209;SDS011;67485;48.816;9.930;2023-08-12T00:28:29;4.37;;;2.50;;
78209;SDS011;67485;48.816;9.930;2023-08-12T00:30:55;6.18;;;2.42;;
78209;SDS011;67485;48.816;9.930;2023-08-12T00:33:20;3.40;;;2.37;;
78209;SDS011;67485;48.816;9.930;2023-08-12T00:35:46;3.50;;;2.50;;
78209;SDS011;67485;48.816;9.930;2023-08-12T00:38:12;3.90;;;2.57;;
78209;SDS011;67485;48.816;9.930;2023-08-12T00:40:38;4.22;;;2.80;;
78209;SDS011;67485;48.816;9.930;2023-08-12T00:43:03;4.60;;;2.70;;
78209;SDS011;67485;48.816;9.930;2023-08-12T00:45:29;2.90;;;2.30;;
78209;SDS011;67485;48.816;9.930;2023-08-12T00:47:55;4.25;;;2.35;;
78209;SDS011;67485;48.816;9.930;2023-08-12T00:50:21;5.90;;;3.00;;
78209;SDS011;67485;48.816;9.930;2023-08-12T00:52:47;5.55;;;2.80;;
78209;SDS011;67485;48.816;9.930;2023-08-12T00:55:13;5.47;;;2.80;;
78209;SDS011;67485;48.816;9.930;2023-08-12T00:57:39;4.03;;;2.73;;
78209;SDS011;67485;48.816;9.930;2023-08-12T01:00:05;3.50;;;2.67;;
78209;SDS011;67485;48.816;9.930;2023-08-12T01:02:33;4.22;;;2.50;;
78209;SDS011;67485;48.816;9.930;2023-08-12T01:04:58;5.00;;;2.93;;
78209;SDS011;67485;48.816;9.930;2023-08-12T01:07:24;3.80;;;2.42;;
78209;SDS011;67485;48.816;9.930;2023-08-12T01:09:50;4.30;;;2.70;;
78209;SDS011;67485;48.816;9.930;2023-08-12T01:12:17;4.75;;;2.40;;
78209;SDS011;67485;48.816;9.930;2023-08-12T01:17:41;3.97;;;2.47;;
78209;SDS011;67485;48.816;9.930;2023-08-12T01:20:08;4.27;;;2.70;;
78209;SDS011;67485;48.816;9.930;2023-08-12T01:22:38;4.10;;;2.40;;
78209;SDS011;67485;48.816;9.930;2023-08-12T01:25:06;4.20;;;2.65;;
78209;SDS011;67485;48.816;9.930;2023-08-12T01:27:33;5.63;;;2.67;;
78209;SDS011;67485;48.816;9.930;2023-08-12T01:30:00;5.43;;;2.63;;
78209;SDS011;67485;48.816;9.930;2023-08-12T01:32:41;4.53;;;2.63;;
78209;SDS011;67485;48.816;9.930;2023-08-12T01:35:50;3.88;;;2.70;;
78209;SDS011;67485;48.816;9.930;2023-08-12T01:38:19;3.33;;;2.38;;
78209;SDS011;67485;48.816;9.930;2023-08-12T01:40:44;4.27;;;2.53;;
78209;SDS011;67485;48.816;9.930;2023-08-12T01:43:12;5.45;;;2.30;;
78209;SDS011;67485;48.816;9.930;2023-08-12T01:45:37;4.43;;;2.55;;
78209;SDS011;67485;48.816;9.930;2023-08-12T01:48:04;5.95;;;2.65;;
78209;SDS011;67485;48.816;9.930;2023-08-12T01:50:30;6.47;;;2.90;;
78209;SDS011;67485;48.816;9.930;2023-08-12T01:52:55;4.40;;;2.80;;
78209;SDS011;67485;48.816;9.930;2023-08-12T01:55:21;6.87;;;2.67;;
78209;SDS011;67485;48.816;9.930;2023-08-12T01:57:48;5.03;;;2.33;;
78209;SDS011;67485;48.816;9.930;2023-08-12T02:00:13;5.38;;;2.50;;
78209;SDS011;67485;48.816;9.930;2023-08-12T02:02:43;4.67;;;3.00;;
78209;SDS011;67485;48.816;9.930;2023-08-12T02:05:11;3.97;;;2.53;;
78209;SDS011;67485;48.816;9.930;2023-08-12T02:07:38;3.50;;;2.70;;
78209;SDS011;67485;48.816;9.930;2023-08-12T02:10:04;4.32;;;2.72;;
78209;SDS011;67485;48.816;9.930;2023-08-12T02:12:30;4.53;;;2.85;;
78209;SDS011;67485;48.816;9.930;2023-08-12T02:14:56;5.43;;;2.90;;
78209;SDS011;67485;48.816;9.930;2023-08-12T02:17:23;4.25;;;2.80;;
78209;SDS011;67485;48.816;9.930;2023-08-12T02:19:50;5.13;;;2.63;;
78209;SDS011;67485;48.816;9.930;2023-08-12T02:22:16;5.40;;;2.87;;
78209;SDS011;67485;48.816;9.930;2023-08-12T02:24:42;7.23;;;2.60;;
78209;SDS011;67485;48.816;9.930;2023-08-12T02:27:08;4.45;;;2.70;;
78209;SDS011;67485;48.816;9.930;2023-08-12T02:29:33;4.57;;;3.00;;
78209;SDS011;67485;48.816;9.930;2023-08-12T02:31:59;4.20;;;2.30;;
78209;SDS011;67485;48.816;9.930;2023-08-12T02:34:24;4.90;;;2.90;;
78209;SDS011;67485;48.816;9.930;2023-08-12T02:36:50;4.15;;;2.70;;
78209;SDS011;67485;48.816;9.930;2023-08-12T02:39:16;5.50;;;2.90;;
78209;SDS011;67485;48.816;9.930;2023-08-12T02:41:42;3.63;;;2.40;;
78209;SDS011;67485;48.816;9.930;2023-08-12T02:44:07;4.00;;;2.67;;
78209;SDS011;67485;48.816;9.930;2023-08-12T02:46:33;3.77;;;2.90;;
78209;SDS011;67485;48.816;9.930;2023-08-12T02:48:59;4.60;;;2.90;;
78209;SDS011;67485;48.816;9.930;2023-08-12T02:51:24;4.15;;;2.70;;
78209;SDS011;67485;48.816;9.930;2023-08-12T02:53:50;4.67;;;2.80;;
78209;SDS011;67485;48.816;9.930;2023-08-12T02:56:16;3.92;;;2.65;;
78209;SDS011;67485;48.816;9.930;2023-08-12T02:58:41;3.70;;;2.60;;
78209;SDS011;67485;48.816;9.930;2023-08-12T03:01:07;3.50;;;2.90;;
78209;SDS011;67485;48.816;9.930;2023-08-12T03:03:33;4.82;;;2.50;;
78209;SDS011;67485;48.816;9.930;2023-08-12T03:05:59;4.17;;;2.83;;
78209;SDS011;67485;48.816;9.930;2023-08-12T03:08:25;6.50;;;3.20;;
78209;SDS011;67485;48.816;9.930;2023-08-12T03:10:57;4.35;;;3.20;;
78209;SDS011;67485;48.816;9.930;2023-08-12T03:13:23;7.67;;;2.80;;
78209;SDS011;67485;48.816;9.930;2023-08-12T03:15:49;4.85;;;2.42;;
78209;SDS011;67485;48.816;9.930;2023-08-12T03:18:15;5.80;;;3.22;;
78209;SDS011;67485;48.816;9.930;2023-08-12T03:20:41;3.33;;;2.70;;
78209;SDS011;67485;48.816;9.930;2023-08-12T03:23:06;3.85;;;2.70;;
78209;SDS011;67485;48.816;9.930;2023-08-12T03:25:32;4.43;;;2.80;;
78209;SDS011;67485;48.816;9.930;2023-08-12T03:27:58;5.65;;;3.13;;
78209;SDS011;67485;48.816;9.930;2023-08-12T03:30:24;4.35;;;2.83;;
78209;SDS011;67485;48.816;9.930;2023-08-12T03:32:51;3.70;;;2.50;;
78209;SDS011;67485;48.816;9.930;2023-08-12T03:35:18;4.28;;;2.80;;
78209;SDS011;67485;48.816;9.930;2023-08-12T03:37:44;6.13;;;2.80;;
78209;SDS011;67485;48.816;9.930;2023-08-12T03:40:10;4.30;;;2.87;;
78209;SDS011;67485;48.816;9.930;2023-08-12T03:42:37;4.80;;;2.70;;
78209;SDS011;67485;48.816;9.930;2023-08-12T03:45:03;8.00;;;3.10;;
78209;SDS011;67485;48.816;9.930;2023-08-12T03:47:29;3.90;;;2.80;;
78209;SDS011;67485;48.816;9.930;2023-08-12T03:49:55;5.47;;;2.90;;
78209;SDS011;67485;48.816;9.930;2023-08-12T03:52:22;5.35;;;2.55;;
78209;SDS011;67485;48.816;9.930;2023-08-12T03:54:47;2.88;;;2.17;;
78209;SDS011;67485;48.816;9.930;2023-08-12T03:57:13;4.77;;;3.07;;
78209;SDS011;67485;48.816;9.930;2023-08-12T03:59:39;4.03;;;2.55;;
78209;SDS011;67485;48.816;9.930;2023-08-12T04:02:05;3.42;;;2.55;;
78209;SDS011;67485;48.816;9.930;2023-08-12T04:04:31;4.70;;;2.87;;
78209;SDS011;67485;48.816;9.930;2023-08-12T04:06:56;5.05;;;2.83;;
78209;SDS011;67485;48.816;9.930;2023-08-12T04:09:22;5.50;;;2.53;;
78209;SDS011;67485;48.816;9.930;2023-08-12T04:11:48;7.32;;;3.08;;
78209;SDS011;67485;48.816;9.930;2023-08-12T04:14:13;5.40;;;3.20;;
78209;SDS011;67485;48.816;9.930;2023-08-12T04:16:41;4.95;;;3.10;;
78209;SDS011;67485;48.816;9.930;2023-08-12T04:19:07;4.03;;;2.87;;
78209;SDS011;67485;48.816;9.930;2023-08-12T04:21:33;5.10;;;2.95;;
78209;SDS011;67485;48.816;9.930;2023-08-12T04:23:59;3.43;;;2.97;;
78209;SDS011;67485;48.816;9.930;2023-08-12T04:26:24;7.93;;;3.70;;
78209;SDS011;67485;48.816;9.930;2023-08-12T04:28:51;5.07;;;3.22;;
78209;SDS011;67485;48.816;9.930;2023-08-12T04:31:17;4.60;;;2.97;;
78209;SDS011;67485;48.816;9.930;2023-08-12T04:33:43;3.90;;;2.83;;
78209;SDS011;67485;48.816;9.930;2023-08-12T04:36:09;5.45;;;3.17;;
78209;SDS011;67485;48.816;9.930;2023-08-12T04:38:35;6.90;;;3.93;;
78209;SDS011;67485;48.816;9.930;2023-08-12T04:41:04;4.13;;;2.95;;
78209;SDS011;67485;48.816;9.930;2023-08-12T04:43:29;5.37;;;3.10;;
78209;SDS011;67485;48.816;9.930;2023-08-12T04:45:57;4.70;;;3.00;;
78209;SDS011;67485;48.816;9.930;2023-08-12T04:48:22;7.22;;;3.45;;
78209;SDS011;67485;48.816;9.930;2023-08-12T04:50:48;5.93;;;3.10;;
78209;SDS011;67485;48.816;9.930;2023-08-12T04:53:16;8.05;;;4.35;;
78209;SDS011;67485;48.816;9.930;2023-08-12T04:55:42;7.20;;;4.03;;
78209;SDS011;67485;48.816;9.930;2023-08-12T04:58:07;21.25;;;7.95;;
78209;SDS011;67485;48.816;9.930;2023-08-12T05:00:33;12.17;;;5.80;;
78209;SDS011;67485;48.816;9.930;2023-08-12T05:02:59;8.83;;;4.40;;
78209;SDS011;67485;48.816;9.930;2023-08-12T05:05:25;10.75;;;4.40;;
78209;SDS011;67485;48.816;9.930;2023-08-12T05:07:52;9.27;;;3.87;;
78209;SDS011;67485;48.816;9.930;2023-08-12T05:10:18;5.70;;;3.40;;
78209;SDS011;67485;48.816;9.930;2023-08-12T05:12:44;5.35;;;3.10;;
78209;SDS011;67485;48.816;9.930;2023-08-12T05:15:11;5.97;;;3.35;;
78209;SDS011;67485;48.816;9.930;2023-08-12T05:17:37;5.07;;;3.20;;
78209;SDS011;67485;48.816;9.930;2023-08-12T05:20:04;6.00;;;2.88;;
78209;SDS011;67485;48.816;9.930;2023-08-12T05:22:31;5.13;;;2.72;;
78209;SDS011;67485;48.816;9.930;2023-08-12T05:24:56;5.30;;;3.00;;
78209;SDS011;67485;48.816;9.930;2023-08-12T05:27:22;4.10;;;2.63;;
78209;SDS011;67485;48.816;9.930;2023-08-12T05:29:47;4.80;;;2.90;;
78209;SDS011;67485;48.816;9.930;2023-08-12T05:32:13;5.13;;;3.13;;
78209;SDS011;67485;48.816;9.930;2023-08-12T05:34:39;5.43;;;2.60;;
78209;SDS011;67485;48.816;9.930;2023-08-12T05:37:04;6.03;;;3.20;;
78209;SDS011;67485;48.816;9.930;2023-08-12T05:39:30;4.10;;;2.88;;
78209;SDS011;67485;48.816;9.930;2023-08-12T05:41:56;5.90;;;2.87;;
78209;SDS011;67485;48.816;9.930;2023-08-12T05:44:21;4.45;;;2.58;;
78209;SDS011;67485;48.816;9.930;2023-08-12T05:46:47;4.27;;;2.77;;
78209;SDS011;67485;48.816;9.930;2023-08-12T05:49:12;3.73;;;2.97;;
78209;SDS011;67485;48.816;9.930;2023-08-12T05:51:38;3.73;;;2.97;;
78209;SDS011;67485;48.816;9.930;2023-08-12T05:54:04;5.83;;;3.23;;
78209;SDS011;67485;48.816;9.930;2023-08-12T05:56:30;4.05;;;3.10;;
78209;SDS011;67485;48.816;9.930;2023-08-12T05:58:56;3.70;;;2.80;;
78209;SDS011;67485;48.816;9.930;2023-08-12T06:01:21;3.80;;;3.30;;
78209;SDS011;67485;48.816;9.930;2023-08-12T06:03:47;6.27;;;2.80;;
78209;SDS011;67485;48.816;9.930;2023-08-12T06:06:12;4.73;;;3.17;;
78209;SDS011;67485;48.816;9.930;2023-08-12T06:08:38;5.40;;;2.93;;
78209;SDS011;67485;48.816;9.930;2023-08-12T06:11:04;3.95;;;2.88;;
78209;SDS011;67485;48.816;9.930;2023-08-12T06:13:29;5.80;;;3.03;;
78209;SDS011;67485;48.816;9.930;2023-08-12T06:15:55;4.13;;;3.10;;
78209;SDS011;67485;48.816;9.930;2023-08-12T06:18:22;7.95;;;3.15;;
78209;SDS011;67485;48.816;9.930;2023-08-12T06:20:47;5.07;;;3.07;;
78209;SDS011;67485;48.816;9.930;2023-08-12T06:23:13;4.50;;;2.78;;
78209;SDS011;67485;48.816;9.930;2023-08-12T06:25:39;3.50;;;2.87;;
78209;SDS011;67485;48.816;9.930;2023-08-12T06:28:05;4.65;;;3.05;;
78209;SDS011;67485;48.816;9.930;2023-08-12T06:30:31;7.03;;;3.20;;
78209;SDS011;67485;48.816;9.930;2023-08-12T06:32:56;5.68;;;3.10;;
78209;SDS011;67485;48.816;9.930;2023-08-12T06:35:22;4.45;;;2.85;;
78209;SDS011;67485;48.816;9.930;2023-08-12T06:37:48;8.50;;;3.10;;
78209;SDS011;67485;48.816;9.930;2023-08-12T06:40:13;3.20;;;2.50;;
78209;SDS011;67485;48.816;9.930;2023-08-12T06:42:39;4.68;;;3.13;;
78209;SDS011;67485;48.816;9.930;2023-08-12T06:45:05;4.63;;;3.10;;
78209;SDS011;67485;48.816;9.930;2023-08-12T06:47:31;3.88;;;2.88;;
78209;SDS011;67485;48.816;9.930;2023-08-12T06:49:57;6.23;;;2.73;;
78209;SDS011;67485;48.816;9.930;2023-08-12T06:52:23;5.70;;;3.35;;
78209;SDS011;67485;48.816;9.930;2023-08-12T06:54:48;5.23;;;3.20;;
78209;SDS011;67485;48.816;9.930;2023-08-12T06:57:14;5.23;;;2.57;;
78209;SDS011;67485;48.816;9.930;2023-08-12T06:59:39;4.07;;;2.90;;
78209;SDS011;67485;48.816;9.930;2023-08-12T07:02:06;4.63;;;3.30;;
78209;SDS011;67485;48.816;9.930;2023-08-12T07:04:31;8.77;;;3.00;;
78209;SDS011;67485;48.816;9.930;2023-08-12T07:06:57;5.10;;;3.22;;
78209;SDS011;67485;48.816;9.930;2023-08-12T07:09:23;6.80;;;3.30;;
78209;SDS011;67485;48.816;9.930;2023-08-12T07:11:48;6.17;;;3.20;;
78209;SDS011;67485;48.816;9.930;2023-08-12T07:14:14;4.88;;;2.72;;
78209;SDS011;67485;48.816;9.930;2023-08-12T07:16:40;6.20;;;3.03;;
78209;SDS011;67485;48.816;9.930;2023-08-12T07:19:05;6.60;;;3.05;;
78209;SDS011;67485;48.816;9.930;2023-08-12T07:21:31;6.10;;;2.80;;
78209;SDS011;67485;48.816;9.930;2023-08-12T07:23:56;4.70;;;3.05;;
78209;SDS011;67485;48.816;9.930;2023-08-12T07:26:22;4.70;;;3.23;;
78209;SDS011;67485;48.816;9.930;2023-08-12T07:28:48;6.05;;;2.60;;
78209;SDS011;67485;48.816;9.930;2023-08-12T07:31:13;5.13;;;2.90;;
78209;SDS011;67485;48.816;9.930;2023-08-12T07:33:39;3.67;;;2.90;;
78209;SDS011;67485;48.816;9.930;2023-08-12T07:36:05;4.53;;;3.10;;
78209;SDS011;67485;48.816;9.930;2023-08-12T07:38:30;4.32;;;2.85;;
78209;SDS011;67485;48.816;9.930;2023-08-12T07:40:56;4.37;;;3.43;;
78209;SDS011;67485;48.816;9.930;2023-08-12T07:43:22;5.60;;;3.38;;
78209;SDS011;67485;48.816;9.930;2023-08-12T07:45:54;4.20;;;3.20;;
78209;SDS011;67485;48.816;9.930;2023-08-12T07:48:20;5.85;;;3.17;;
78209;SDS011;67485;48.816;9.930;2023-08-12T07:50:46;4.97;;;3.17;;
78209;SDS011;67485;48.816;9.930;2023-08-12T07:53:15;4.28;;;3.17;;
78209;SDS011;67485;48.816;9.930;2023-08-12T07:55:41;6.10;;;2.87;;
78209;SDS011;67485;48.816;9.930;2023-08-12T07:58:07;4.90;;;3.65;;
78209;SDS011;67485;48.816;9.930;2023-08-12T08:00:33;6.78;;;3.50;;
78209;SDS011;67485;48.816;9.930;2023-08-12T08:02:59;5.03;;;3.60;;
78209;SDS011;67485;48.816;9.930;2023-08-12T08:05:25;4.10;;;3.30;;
78209;SDS011;67485;48.816;9.930;2023-08-12T08:07:50;6.43;;;3.47;;
78209;SDS011;67485;48.816;9.930;2023-08-12T08:10:16;4.95;;;3.38;;
78209;SDS011;67485;48.816;9.930;2023-08-12T08:12:42;5.57;;;3.03;;
78209;SDS011;67485;48.816;9.930;2023-08-12T08:15:07;5.03;;;3.30;;
78209;SDS011;67485;48.816;9.930;2023-08-12T08:17:33;4.27;;;3.10;;
78209;SDS011;67485;48.816;9.930;2023-08-12T08:19:59;8.00;;;3.10;;
78209;SDS011;67485;48.816;9.930;2023-08-12T08:22:24;4.30;;;3.13;;
78209;SDS011;67485;48.816;9.930;2023-08-12T08:24:50;4.55;;;3.17;;
78209;SDS011;67485;48.816;9.930;2023-08-12T08:27:16;5.83;;;3.10;;
78209;SDS011;67485;48.816;9.930;2023-08-12T08:29:41;3.65;;;2.80;;
78209;SDS011;67485;48.816;9.930;2023-08-12T08:32:07;6.83;;;3.47;;
78209;SDS011;67485;48.816;9.930;2023-08-12T08:34:33;5.05;;;3.13;;
78209;SDS011;67485;48.816;9.930;2023-08-12T08:36:59;7.60;;;3.10;;
78209;SDS011;67485;48.816;9.930;2023-08-12T08:39:25;4.67;;;3.10;;
78209;SDS011;67485;48.816;9.930;2023-08-12T08:41:51;4.50;;;3.15;;
78209;SDS011;67485;48.816;9.930;2023-08-12T08:44:20;5.53;;;3.40;;
78209;SDS011;67485;48.816;9.930;2023-08-12T08:46:49;4.73;;;3.00;;
78209;SDS011;67485;48.816;9.930;2023-08-12T08:49:19;5.45;;;3.20;;
78209;SDS011;67485;48.816;9.930;2023-08-12T08:51:46;7.97;;;3.50;;
78209;SDS011;67485;48.816;9.930;2023-08-12T08:54:13;6.45;;;3.15;;
78209;SDS011;67485;48.816;9.930;2023-08-12T08:56:39;4.03;;;3.13;;
78209;SDS011;67485;48.816;9.930;2023-08-12T08:59:05;6.30;;;3.13;;
78209;SDS011;67485;48.816;9.930;2023-08-12T09:01:30;5.38;;;3.20;;
78209;SDS011;67485;48.816;9.930;2023-08-12T09:03:57;4.03;;;2.97;;
78209;SDS011;67485;48.816;9.930;2023-08-12T09:06:26;5.90;;;3.00;;
78209;SDS011;67485;48.816;9.930;2023-08-12T09:08:53;4.85;;;3.03;;
78209;SDS011;67485;48.816;9.930;2023-08-12T09:11:19;7.43;;;2.80;;
78209;SDS011;67485;48.816;9.930;2023-08-12T09:13:45;5.67;;;3.27;;
78209;SDS011;67485;48.816;9.930;2023-08-12T09:16:11;4.50;;;3.10;;
78209;SDS011;67485;48.816;9.930;2023-08-12T09:18:37;5.28;;;3.22;;
78209;SDS011;67485;48.816;9.930;2023-08-12T09:21:03;5.47;;;3.00;;
78209;SDS011;67485;48.816;9.930;2023-08-12T09:23:33;5.47;;;2.97;;
78209;SDS011;67485;48.816;9.930;2023-08-12T09:26:02;3.53;;;2.90;;
78209;SDS011;67485;48.816;9.930;2023-08-12T09:28:36;3.70;;;3.10;;
78209;SDS011;67485;48.816;9.930;2023-08-12T09:31:01;5.25;;;3.17;;
78209;SDS011;67485;48.816;9.930;2023-08-12T09:33:27;4.10;;;3.30;;
78209;SDS011;67485;48.816;9.930;2023-08-12T09:35:53;4.32;;;3.10;;
78209;SDS011;67485;48.816;9.930;2023-08-12T09:38:21;4.85;;;3.58;;
78209;SDS011;67485;48.816;9.930;2023-08-12T09:40:47;5.07;;;3.20;;
78209;SDS011;67485;48.816;9.930;2023-08-12T09:43:13;5.13;;;3.55;;
78209;SDS011;67485;48.816;9.930;2023-08-12T09:45:40;3.80;;;3.05;;
78209;SDS011;67485;48.816;9.930;2023-08-12T09:48:06;4.03;;;3.27;;
78209;SDS011;67485;48.816;9.930;2023-08-12T09:50:33;4.10;;;3.20;;
78209;SDS011;67485;48.816;9.930;2023-08-12T09:53:01;4.45;;;3.65;;
78209;SDS011;67485;48.816;9.930;2023-08-12T09:55:28;5.03;;;3.55;;
78209;SDS011;67485;48.816;9.930;2023-08-12T09:57:56;4.63;;;3.80;;
78209;SDS011;67485;48.816;9.930;2023-08-12T10:00:24;4.00;;;3.55;;
78209;SDS011;67485;48.816;9.930;2023-08-12T10:02:51;3.92;;;3.20;;
78209;SDS011;67485;48.816;9.930;2023-08-12T10:05:24;5.78;;;3.63;;
78209;SDS011;67485;48.816;9.930;2023-08-12T10:07:53;4.80;;;3.90;;
78209;SDS011;67485;48.816;9.930;2023-08-12T10:10:20;4.70;;;3.80;;
78209;SDS011;67485;48.816;9.930;2023-08-12T10:12:47;4.25;;;3.08;;
78209;SDS011;67485;48.816;9.930;2023-08-12T10:15:14;8.73;;;3.53;;
78209;SDS011;67485;48.816;9.930;2023-08-12T10:17:42;5.55;;;3.60;;
78209;SDS011;67485;48.816;9.930;2023-08-12T10:20:12;4.07;;;3.37;;
78209;SDS011;67485;48.816;9.930;2023-08-12T10:22:40;6.95;;;3.30;;
78209;SDS011;67485;48.816;9.930;2023-08-12T10:25:08;5.45;;;3.58;;
78209;SDS011;67485;48.816;9.930;2023-08-12T10:27:34;5.35;;;4.05;;
78209;SDS011;67485;48.816;9.930;2023-08-12T10:30:04;4.20;;;3.65;;
78209;SDS011;67485;48.816;9.930;2023-08-12T10:32:31;5.47;;;3.50;;
78209;SDS011;67485;48.816;9.930;2023-08-12T10:34:57;4.45;;;3.97;;
78209;SDS011;67485;48.816;9.930;2023-08-12T10:37:27;5.07;;;3.40;;
78209;SDS011;67485;48.816;9.930;2023-08-12T10:39:53;6.47;;;3.50;;
78209;SDS011;67485;48.816;9.930;2023-08-12T10:45:11;4.30;;;3.10;;
78209;SDS011;67485;48.816;9.930;2023-08-12T10:47:41;3.88;;;3.20;;
78209;SDS011;67485;48.816;9.930;2023-08-12T10:50:19;3.92;;;3.53;;
78209;SDS011;67485;48.816;9.930;2023-08-12T10:52:45;3.70;;;3.30;;
78209;SDS011;67485;48.816;9.930;2023-08-12T10:55:22;4.10;;;3.13;;
78209;SDS011;67485;48.816;9.930;2023-08-12T10:57:49;3.50;;;3.20;;
78209;SDS011;67485;48.816;9.930;2023-08-12T11:00:17;5.05;;;3.40;;
78209;SDS011;67485;48.816;9.930;2023-08-12T11:02:52;4.15;;;3.47;;
78209;SDS011;67485;48.816;9.930;2023-08-12T11:05:18;3.53;;;3.22;;
78209;SDS011;67485;48.816;9.930;2023-08-12T11:07:47;4.25;;;3.35;;
78209;SDS011;67485;48.816;9.930;2023-08-12T11:10:15;4.73;;;2.87;;
78209;SDS011;67485;48.816;9.930;2023-08-12T11:15:19;4.80;;;3.08;;
78209;SDS011;67485;48.816;9.930;2023-08-12T11:18:03;4.05;;;3.05;;
78209;SDS011;67485;48.816;9.930;2023-08-12T11:20:34;3.47;;;2.90;;
78209;SDS011;67485;48.816;9.930;2023-08-12T11:23:01;4.03;;;3.00;;
78209;SDS011;67485;48.816;9.930;2023-08-12T11:25:28;3.60;;;2.60;;
78209;SDS011;67485;48.816;9.930;2023-08-12T11:27:54;4.05;;;3.05;;
78209;SDS011;67485;48.816;9.930;2023-08-12T11:30:21;5.38;;;3.25;;
78209;SDS011;67485;48.816;9.930;2023-08-12T11:32:48;6.82;;;3.13;;
78209;SDS011;67485;48.816;9.930;2023-08-12T11:35:16;5.40;;;2.97;;
78209;SDS011;67485;48.816;9.930;2023-08-12T11:37:44;7.13;;;2.90;;
78209;SDS011;67485;48.816;9.930;2023-08-12T11:40:12;5.93;;;2.90;;
78209;SDS011;67485;48.816;9.930;2023-08-12T11:42:48;3.63;;;3.05;;
78209;SDS011;67485;48.816;9.930;2023-08-12T11:45:21;3.63;;;2.97;;
78209;SDS011;67485;48.816;9.930;2023-08-12T11:47:48;4.43;;;3.10;;
78209;SDS011;67485;48.816;9.930;2023-08-12T11:50:24;3.53;;;3.08;;
78209;SDS011;67485;48.816;9.930;2023-08-12T11:52:51;4.55;;;2.78;;
78209;SDS011;67485;48.816;9.930;2023-08-12T11:55:17;3.50;;;2.90;;
78209;SDS011;67485;48.816;9.930;2023-08-12T11:57:43;5.25;;;2.80;;
78209;SDS011;67485;48.816;9.930;2023-08-12T12:00:10;5.90;;;3.10;;
78209;SDS011;67485;48.816;9.930;2023-08-12T12:02:41;5.85;;;3.38;;
78209;SDS011;67485;48.816;9.930;2023-08-12T12:05:28;4.85;;;3.00;;
78209;SDS011;67485;48.816;9.930;2023-08-12T12:07:55;5.83;;;2.93;;
78209;SDS011;67485;48.816;9.930;2023-08-12T12:10:25;5.45;;;2.80;;
78209;SDS011;67485;48.816;9.930;2023-08-12T12:12:54;4.72;;;3.08;;
78209;SDS011;67485;48.816;9.930;2023-08-12T12:15:20;4.30;;;2.92;;
78209;SDS011;67485;48.816;9.930;2023-08-12T12:17:46;6.13;;;3.13;;
78209;SDS011;67485;48.816;9.930;2023-08-12T12:20:13;5.35;;;2.80;;
78209;SDS011;67485;48.816;9.930;2023-08-12T12:22:40;6.10;;;2.92;;
78209;SDS011;67485;48.816;9.930;2023-08-12T12:25:12;5.28;;;3.40;;
78209;SDS011;67485;48.816;9.930;2023-08-12T12:27:39;4.60;;;3.30;;
78209;SDS011;67485;48.816;9.930;2023-08-12T12:30:10;5.72;;;3.15;;
78209;SDS011;67485;48.816;9.930;2023-08-12T12:32:37;7.00;;;3.33;;
78209;SDS011;67485;48.816;9.930;2023-08-12T12:35:03;4.18;;;2.92;;
78209;SDS011;67485;48.816;9.930;2023-08-12T12:37:32;4.30;;;3.10;;
78209;SDS011;67485;48.816;9.930;2023-08-12T12:39:58;5.67;;;3.00;;
78209;SDS011;67485;48.816;9.930;2023-08-12T12:42:24;4.80;;;3.13;;
78209;SDS011;67485;48.816;9.930;2023-08-12T12:44:49;4.93;;;3.10;;
78209;SDS011;67485;48.816;9.930;2023-08-12T12:47:15;4.30;;;3.10;;
78209;SDS011;67485;48.816;9.930;2023-08-12T12:49:41;4.57;;;3.22;;
78209;SDS011;67485;48.816;9.930;2023-08-12T12:52:07;5.97;;;3.17;;
78209;SDS011;67485;48.816;9.930;2023-08-12T12:54:33;3.97;;;3.22;;
78209;SDS011;67485;48.816;9.930;2023-08-12T12:56:58;5.20;;;2.87;;
78209;SDS011;67485;48.816;9.930;2023-08-12T12:59:24;4.03;;;3.03;;
78209;SDS011;67485;48.816;9.930;2023-08-12T13:01:50;4.47;;;3.23;;
78209;SDS011;67485;48.816;9.930;2023-08-12T13:04:15;8.13;;;3.70;;
78209;SDS011;67485;48.816;9.930;2023-08-12T13:06:41;6.20;;;2.70;;
78209;SDS011;67485;48.816;9.930;2023-08-12T13:09:07;5.05;;;3.22;;
78209;SDS011;67485;48.816;9.930;2023-08-12T13:11:33;4.27;;;3.10;;
78209;SDS011;67485;48.816;9.930;2023-08-12T13:14:02;6.15;;;3.42;;
78209;SDS011;67485;48.816;9.930;2023-08-12T13:16:29;4.22;;;2.90;;
78209;SDS011;67485;48.816;9.930;2023-08-12T13:18:55;5.75;;;2.88;;
78209;SDS011;67485;48.816;9.930;2023-08-12T13:21:24;7.63;;;3.27;;
78209;SDS011;67485;48.816;9.930;2023-08-12T13:23:50;6.50;;;2.85;;
78209;SDS011;67485;48.816;9.930;2023-08-12T13:26:16;7.93;;;3.40;;
78209;SDS011;67485;48.816;9.930;2023-08-12T13:28:42;8.03;;;3.57;;
78209;SDS011;67485;48.816;9.930;2023-08-12T13:31:09;9.75;;;3.65;;
78209;SDS011;67485;48.816;9.930;2023-08-12T13:33:34;7.47;;;3.45;;
78209;SDS011;67485;48.816;9.930;2023-08-12T13:36:00;8.47;;;3.27;;
78209;SDS011;67485;48.816;9.930;2023-08-12T13:38:26;6.22;;;3.17;;
78209;SDS011;67485;48.816;9.930;2023-08-12T13:40:51;5.43;;;3.20;;
78209;SDS011;67485;48.816;9.930;2023-08-12T13:43:17;5.22;;;2.72;;
78209;SDS011;67485;48.816;9.930;2023-08-12T13:45:42;6.80;;;3.50;;
78209;SDS011;67485;48.816;9.930;2023-08-12T13:48:08;5.15;;;2.58;;
78209;SDS011;67485;48.816;9.930;2023-08-12T13:50:34;6.10;;;2.80;;
78209;SDS011;67485;48.816;9.930;2023-08-12T13:52:59;5.67;;;2.40;;
78209;SDS011;67485;48.816;9.930;2023-08-12T13:55:25;7.77;;;2.77;;
78209;SDS011;67485;48.816;9.930;2023-08-12T13:57:51;4.70;;;2.97;;
78209;SDS011;67485;48.816;9.930;2023-08-12T14:00:17;5.20;;;2.97;;
78209;SDS011;67485;48.816;9.930;2023-08-12T14:02:43;6.00;;;2.70;;
78209;SDS011;67485;48.816;9.930;2023-08-12T14:05:09;5.50;;;2.80;;
78209;SDS011;67485;48.816;9.930;2023-08-12T14:07:36;5.25;;;2.75;;
78209;SDS011;67485;48.816;9.930;2023-08-12T14:10:02;4.27;;;2.60;;
78209;SDS011;67485;48.816;9.930;2023-08-12T14:12:29;5.97;;;3.00;;
78209;SDS011;67485;48.816;9.930;2023-08-12T14:14:54;4.32;;;2.40;;
78209;SDS011;67485;48.816;9.930;2023-08-12T14:17:20;5.50;;;3.00;;
78209;SDS011;67485;48.816;9.930;2023-08-12T14:19:48;4.65;;;2.63;;
78209;SDS011;67485;48.816;9.930;2023-08-12T14:22:15;3.80;;;2.40;;
78209;SDS011;67485;48.816;9.930;2023-08-12T14:24:41;4.33;;;2.33;;
78209;SDS011;67485;48.816;9.930;2023-08-12T14:27:09;4.20;;;2.47;;
78209;SDS011;67485;48.816;9.930;2023-08-12T14:29:35;4.03;;;2.28;;
78209;SDS011;67485;48.816;9.930;2023-08-12T14:32:00;4.43;;;2.60;;
78209;SDS011;67485;48.816;9.930;2023-08-12T14:34:26;3.50;;;2.10;;
78209;SDS011;67485;48.816;9.930;2023-08-12T14:36:52;5.45;;;2.70;;
78209;SDS011;67485;48.816;9.930;2023-08-12T14:39:17;4.27;;;2.53;;
78209;SDS011;67485;48.816;9.930;2023-08-12T14:41:43;5.10;;;2.83;;
78209;SDS011;67485;48.816;9.930;2023-08-12T14:44:08;4.70;;;2.97;;
78209;SDS011;67485;48.816;9.930;2023-08-12T14:46:34;3.88;;;2.47;;
78209;SDS011;67485;48.816;9.930;2023-08-12T14:49:00;5.13;;;2.30;;
78209;SDS011;67485;48.816;9.930;2023-08-12T14:51:25;7.03;;;2.73;;
78209;SDS011;67485;48.816;9.930;2023-08-12T14:53:51;4.68;;;3.20;;